createdAt,value
2022-10-19T00:01:43.414Z,12.57
2022-10-19T00:04:10.187Z,14.90
2022-10-19T00:06:37.518Z,13.88
2022-10-19T00:09:12.890Z,13.00
2022-10-19T00:11:42.891Z,12.57
2022-10-19T00:14:14.264Z,13.25
2022-10-19T00:16:42.824Z,12.85
2022-10-19T00:19:15.183Z,12.30
2022-10-19T00:21:42.437Z,13.63
2022-10-19T00:24:09.449Z,13.70
2022-10-19T00:26:36.661Z,12.70
2022-10-19T00:29:05.502Z,14.07
2022-10-19T00:31:32.562Z,12.25
2022-10-19T00:33:59.644Z,12.90
2022-10-19T00:36:29.921Z,14.65
2022-10-19T00:38:57.658Z,12.60
2022-10-19T00:41:28.018Z,13.50
2022-10-19T00:44:05.882Z,14.60
2022-10-19T00:46:36.106Z,13.48
2022-10-19T00:49:11.089Z,13.20
2022-10-19T00:51:42.105Z,13.43
2022-10-19T00:54:09.866Z,12.57
2022-10-19T00:56:41.054Z,14.30
2022-10-19T00:59:09.501Z,14.82
2022-10-19T01:01:36.556Z,13.70
2022-10-19T01:04:04.658Z,12.60
2022-10-19T01:06:32.070Z,17.55
2022-10-19T01:08:58.833Z,12.43
2022-10-19T01:11:34.267Z,13.10
2022-10-19T01:14:14.466Z,14.43
2022-10-19T01:17:06.988Z,14.80
2022-10-19T01:20:04.274Z,12.70
2022-10-19T01:22:31.010Z,13.40
2022-10-19T01:25:03.793Z,13.00
2022-10-19T01:27:30.633Z,13.60
2022-10-19T01:30:02.507Z,12.70
2022-10-19T01:32:58.801Z,13.23
2022-10-19T01:36:02.438Z,11.82
2022-10-19T01:38:37.357Z,12.52
2022-10-19T01:41:10.052Z,13.15
2022-10-19T01:43:54.893Z,12.80
2022-10-19T01:46:32.323Z,13.10
2022-10-19T01:49:07.731Z,11.38
2022-10-19T01:51:40.168Z,14.00
2022-10-19T01:54:12.464Z,13.55
2022-10-19T01:56:42.220Z,13.65
2022-10-19T01:59:11.471Z,11.68
2022-10-19T02:01:43.892Z,13.10
2022-10-19T02:04:13.367Z,13.57
2022-10-19T02:06:40.784Z,11.90
2022-10-19T02:09:07.981Z,14.00
2022-10-19T02:11:37.254Z,15.48
2022-10-19T02:14:13.125Z,14.68
2022-10-19T02:16:50.121Z,17.45
2022-10-19T02:19:18.255Z,18.25
2022-10-19T02:21:45.322Z,19.67
2022-10-19T02:24:12.150Z,18.03
2022-10-19T02:26:40.172Z,22.30
2022-10-19T02:29:07.989Z,22.27
2022-10-19T02:31:35.128Z,28.88
2022-10-19T02:34:02.141Z,27.42
2022-10-19T02:36:29.112Z,23.58
2022-10-19T02:38:55.845Z,37.05
2022-10-19T02:41:37.209Z,31.17
2022-10-19T02:44:12.312Z,39.38
2022-10-19T02:46:46.049Z,45.20
2022-10-19T02:49:13.745Z,22.08
2022-10-19T02:51:57.629Z,28.73
2022-10-19T02:54:25.045Z,25.60
2022-10-19T02:56:52.157Z,31.42
2022-10-19T02:59:18.978Z,26.80
2022-10-19T03:01:45.863Z,22.70
2022-10-19T03:04:12.632Z,25.83
2022-10-19T03:06:39.341Z,26.63
2022-10-19T03:09:06.269Z,26.45
2022-10-19T03:11:33.866Z,20.60
2022-10-19T03:14:00.599Z,18.83
2022-10-19T03:16:27.331Z,17.10
2022-10-19T03:18:54.773Z,29.92
2022-10-19T03:21:21.608Z,18.60
2022-10-19T03:23:48.341Z,15.55
2022-10-19T03:26:16.258Z,16.88
2022-10-19T03:28:43.139Z,16.87
2022-10-19T03:31:10.033Z,17.87
2022-10-19T03:33:36.929Z,33.50
2022-10-19T03:36:24.340Z,35.30
2022-10-19T03:38:52.865Z,20.10
2022-10-19T03:41:21.212Z,23.25
2022-10-19T03:43:48.097Z,20.38
2022-10-19T03:46:15.325Z,22.30
2022-10-19T03:48:42.513Z,20.55
2022-10-19T03:51:12.561Z,21.25
2022-10-19T03:53:40.629Z,19.95
2022-10-19T03:56:18.531Z,24.33
2022-10-19T03:58:46.860Z,20.73
2022-10-19T04:01:16.619Z,20.67
2022-10-19T04:03:43.589Z,19.63
2022-10-19T04:06:19.605Z,25.42
2022-10-19T04:08:49.960Z,30.40
2022-10-19T04:11:18.976Z,24.47
2022-10-19T04:13:57.631Z,20.07
2022-10-19T04:16:26.167Z,20.00
2022-10-19T04:18:52.985Z,27.13
2022-10-19T04:21:21.811Z,24.43
2022-10-19T04:23:49.589Z,28.08
2022-10-19T04:26:16.961Z,23.92
2022-10-19T04:28:43.747Z,18.80
2022-10-19T04:31:11.553Z,33.97
2022-10-19T04:33:39.516Z,19.17
2022-10-19T04:36:08.915Z,23.10
2022-10-19T04:38:36.638Z,16.70
2022-10-19T04:41:08.464Z,21.40
2022-10-19T04:43:35.596Z,22.88
2022-10-19T04:46:07.297Z,21.90
2022-10-19T04:48:35.702Z,21.60
2022-10-19T04:51:02.956Z,16.60
2022-10-19T04:53:29.758Z,17.25
2022-10-19T04:55:56.916Z,13.50
2022-10-19T04:58:24.054Z,15.35
2022-10-19T05:00:51.402Z,18.52
2022-10-19T05:03:18.193Z,19.33
2022-10-19T05:05:44.963Z,17.80
2022-10-19T05:08:11.756Z,21.70
2022-10-19T05:10:38.853Z,20.00
2022-10-19T05:13:05.690Z,21.17
2022-10-19T05:15:32.478Z,24.93
2022-10-19T05:17:59.406Z,20.40
2022-10-19T05:20:27.196Z,18.50
2022-10-19T05:22:53.916Z,24.25
2022-10-19T05:25:20.708Z,23.73
2022-10-19T05:27:54.180Z,31.63
2022-10-19T05:30:24.260Z,21.00
2022-10-19T05:32:51.027Z,19.48
2022-10-19T05:35:21.510Z,23.83
2022-10-19T05:37:53.544Z,16.47
2022-10-19T05:40:20.248Z,18.60
2022-10-19T05:42:47.017Z,20.13
2022-10-19T05:45:13.725Z,17.98
2022-10-19T05:47:40.452Z,16.95
2022-10-19T05:50:07.441Z,16.80
2022-10-19T05:52:34.209Z,16.40
2022-10-19T05:55:00.917Z,19.02
2022-10-19T05:57:27.646Z,21.52
2022-10-19T05:59:56.674Z,17.20
2022-10-19T06:02:23.688Z,16.98
2022-10-19T06:04:50.434Z,18.70
2022-10-19T06:07:17.170Z,16.65
2022-10-19T06:09:43.999Z,22.38
2022-10-19T06:12:10.733Z,16.70
2022-10-19T06:14:37.536Z,27.75
2022-10-19T06:17:04.321Z,23.13
2022-10-19T06:19:31.017Z,21.83
2022-10-19T06:21:57.809Z,20.98
2022-10-19T06:24:24.578Z,20.55
2022-10-19T06:26:51.398Z,26.33
2022-10-19T06:29:18.124Z,18.48
2022-10-19T06:31:46.357Z,17.17
2022-10-19T06:34:13.277Z,17.75
2022-10-19T06:36:40.144Z,15.75
2022-10-19T06:39:06.895Z,18.27
2022-10-19T06:41:34.617Z,14.38
2022-10-19T06:44:01.433Z,15.95
2022-10-19T06:46:28.414Z,19.88
2022-10-19T06:49:01.054Z,20.88
2022-10-19T06:51:29.473Z,16.98
2022-10-19T06:53:57.493Z,27.35
2022-10-19T06:56:26.120Z,19.58
2022-10-19T06:58:53.812Z,15.23
2022-10-19T07:01:20.786Z,16.10
2022-10-19T07:03:47.558Z,23.55
2022-10-19T07:06:14.577Z,17.67
2022-10-19T07:08:42.586Z,16.88
2022-10-19T07:11:12.328Z,18.20
2022-10-19T07:13:39.187Z,27.55
2022-10-19T07:16:15.919Z,22.52
2022-10-19T07:18:47.377Z,15.30
2022-10-19T07:21:15.789Z,21.20
2022-10-19T07:23:43.915Z,17.83
2022-10-19T07:26:23.713Z,27.20
2022-10-19T07:28:51.194Z,16.48
2022-10-19T07:31:21.988Z,17.67
2022-10-19T07:33:56.998Z,16.00
2022-10-19T07:36:24.713Z,13.98
2022-10-19T07:38:52.293Z,13.73
2022-10-19T07:41:23.053Z,14.00
2022-10-19T07:43:51.120Z,15.82
2022-10-19T07:46:23.437Z,14.00
2022-10-19T07:48:50.205Z,14.15
2022-10-19T07:51:18.513Z,14.67
2022-10-19T07:53:46.171Z,14.23
2022-10-19T07:56:16.086Z,14.00
2022-10-19T07:58:43.131Z,14.88
2022-10-19T08:01:18.972Z,15.35
2022-10-19T08:06:33.583Z,15.27
2022-10-19T08:09:00.816Z,14.88
2022-10-19T08:11:33.273Z,14.40
2022-10-19T08:14:03.186Z,15.93
2022-10-19T08:16:39.398Z,14.95
2022-10-19T08:19:09.691Z,16.10
2022-10-19T08:21:38.169Z,15.90
2022-10-19T08:24:06.033Z,15.00
2022-10-19T08:26:34.512Z,15.00
2022-10-19T08:29:06.375Z,14.13
2022-10-19T08:31:33.210Z,14.13
2022-10-19T08:34:00.266Z,14.15
2022-10-19T08:36:28.331Z,15.13
2022-10-19T08:38:55.069Z,14.60
2022-10-19T08:41:26.553Z,15.40
2022-10-19T08:44:15.744Z,13.70
2022-10-19T08:47:07.761Z,17.35
2022-10-19T08:49:34.982Z,16.08
2022-10-19T08:52:12.288Z,14.05
2022-10-19T08:54:54.932Z,15.82
2022-10-19T08:57:50.728Z,19.90
2022-10-19T09:00:54.660Z,15.45
2022-10-19T09:03:54.496Z,14.63
2022-10-19T09:06:49.208Z,15.32
2022-10-19T09:09:18.465Z,13.80
2022-10-19T09:11:49.105Z,15.60
2022-10-19T09:14:21.878Z,14.90
2022-10-19T09:16:48.783Z,14.73
2022-10-19T09:19:25.532Z,16.20
2022-10-19T09:21:57.268Z,16.40
2022-10-19T09:24:35.718Z,15.40
2022-10-19T09:27:02.969Z,14.85
2022-10-19T09:29:29.680Z,15.00
2022-10-19T09:32:00.179Z,15.27
2022-10-19T09:34:33.657Z,14.40
2022-10-19T09:37:00.961Z,15.85
2022-10-19T09:39:30.645Z,15.50
2022-10-19T09:42:13.149Z,15.20
2022-10-19T09:44:40.010Z,16.73
2022-10-19T09:47:32.570Z,14.67
2022-10-19T09:50:24.311Z,15.23
2022-10-19T09:52:57.150Z,14.07
2022-10-19T09:55:44.025Z,14.50
2022-10-19T09:58:13.704Z,14.33
2022-10-19T10:00:52.267Z,14.90
2022-10-19T10:03:43.507Z,15.53
2022-10-19T10:06:15.519Z,15.80
2022-10-19T10:08:48.571Z,15.90
2022-10-19T10:11:23.905Z,14.52
2022-10-19T10:13:53.505Z,15.05
2022-10-19T10:16:29.243Z,15.30
2022-10-19T10:18:59.120Z,15.57
2022-10-19T10:21:37.150Z,15.00
2022-10-19T10:24:18.541Z,15.88
2022-10-19T10:26:52.235Z,16.20
2022-10-19T10:29:21.604Z,15.68
2022-10-19T10:32:12.935Z,16.07
2022-10-19T10:34:51.321Z,15.93
2022-10-19T10:37:36.568Z,15.45
2022-10-19T10:40:05.428Z,15.68
2022-10-19T10:42:52.102Z,15.05
2022-10-19T10:45:49.548Z,17.20
2022-10-19T10:48:53.381Z,15.30
2022-10-19T10:51:32.402Z,15.77
2022-10-19T10:54:22.653Z,15.85
2022-10-19T10:57:15.745Z,16.08
2022-10-19T11:00:26.642Z,16.10
2022-10-19T11:02:57.003Z,16.15
2022-10-19T11:05:33.425Z,16.75
2022-10-19T11:08:12.301Z,16.13
2022-10-19T11:11:19.648Z,17.70
2022-10-19T11:13:53.873Z,16.98
2022-10-19T11:16:41.981Z,17.27
2022-10-19T11:19:22.288Z,16.00
2022-10-19T11:21:57.589Z,16.83
2022-10-19T11:24:46.336Z,17.20
2022-10-19T11:27:28.496Z,16.15
2022-10-19T11:30:29.486Z,16.42
2022-10-19T11:33:05.117Z,16.58
2022-10-19T11:35:54.432Z,15.50
2022-10-19T11:38:49.531Z,16.80
2022-10-19T11:41:26.897Z,15.95
2022-10-19T11:44:16.534Z,15.88
2022-10-19T11:46:55.582Z,16.80
2022-10-19T11:49:47.137Z,16.45
2022-10-19T11:52:28.904Z,17.63
2022-10-19T11:55:32.597Z,15.30
2022-10-19T11:58:16.181Z,15.50
2022-10-19T12:00:52.601Z,15.97
2022-10-19T12:04:03.852Z,17.00
2022-10-19T12:06:48.555Z,16.73
2022-10-19T12:09:21.340Z,15.60
2022-10-19T12:11:54.288Z,16.00
2022-10-19T12:14:27.921Z,16.90
2022-10-19T12:16:59.983Z,16.50
2022-10-19T12:19:36.448Z,17.27
2022-10-19T12:22:05.635Z,16.50
2022-10-19T12:24:34.413Z,17.10
2022-10-19T12:27:01.667Z,17.50
2022-10-19T12:29:41.120Z,19.25
2022-10-19T12:32:12.586Z,17.80
2022-10-19T12:34:59.174Z,17.23
2022-10-19T12:37:34.834Z,16.92
2022-10-19T12:40:38.513Z,18.20
2022-10-19T12:43:20.958Z,18.52
2022-10-19T12:46:07.637Z,17.65
2022-10-19T12:48:36.415Z,21.35
2022-10-19T12:51:12.432Z,18.23
2022-10-19T12:53:44.377Z,18.95
2022-10-19T12:56:13.356Z,19.00
2022-10-19T12:58:47.670Z,18.58
2022-10-19T13:01:20.998Z,17.52
2022-10-19T13:03:51.191Z,18.15
2022-10-19T13:06:24.076Z,18.20
2022-10-19T13:08:53.687Z,17.73
2022-10-19T13:11:21.775Z,18.98
2022-10-19T13:13:56.847Z,17.63
2022-10-19T13:16:29.542Z,18.75
2022-10-19T13:19:14.401Z,19.40
2022-10-19T13:21:54.388Z,18.95
2022-10-19T13:24:24.216Z,19.45
2022-10-19T13:27:02.851Z,19.73
2022-10-19T13:29:39.231Z,18.42
2022-10-19T13:32:43.421Z,19.60
2022-10-19T13:35:26.658Z,18.90
2022-10-19T13:38:15.370Z,18.20
2022-10-19T13:40:48.216Z,18.50
2022-10-19T13:43:19.739Z,20.55
2022-10-19T13:46:30.810Z,20.57
2022-10-19T13:49:32.666Z,19.83
2022-10-19T13:52:18.544Z,22.20
2022-10-19T13:54:51.245Z,21.15
2022-10-19T13:57:22.503Z,20.23
2022-10-19T14:00:04.377Z,20.58
2022-10-19T14:02:46.337Z,19.70
2022-10-19T14:05:44.545Z,18.58
2022-10-19T14:08:20.126Z,20.25
2022-10-19T14:11:00.944Z,22.13
2022-10-19T14:13:28.712Z,20.80
2022-10-19T14:15:57.807Z,20.45
2022-10-19T14:18:34.406Z,21.30
2022-10-19T14:21:06.447Z,20.43
2022-10-19T14:23:35.617Z,20.50
2022-10-19T14:26:12.069Z,20.00
2022-10-19T14:28:40.545Z,21.27
2022-10-19T14:31:10.156Z,21.77
2022-10-19T14:33:40.656Z,21.52
2022-10-19T14:36:14.758Z,20.93
2022-10-19T14:38:45.482Z,21.63
2022-10-19T14:41:28.877Z,21.95
2022-10-19T14:43:59.972Z,20.77
2022-10-19T14:46:30.854Z,23.60
2022-10-19T14:49:03.910Z,21.53
2022-10-19T14:51:42.233Z,21.87
2022-10-19T14:54:43.026Z,22.20
2022-10-19T14:57:18.007Z,22.17
2022-10-19T14:59:49.944Z,20.70
2022-10-19T15:02:46.096Z,21.52
2022-10-19T15:05:23.679Z,19.90
2022-10-19T15:07:51.125Z,22.27
2022-10-19T15:10:22.883Z,23.20
2022-10-19T15:12:51.521Z,21.90
2022-10-19T15:15:28.055Z,19.30
2022-10-19T15:17:56.354Z,19.02
2022-10-19T15:20:27.363Z,20.80
2022-10-19T15:22:55.238Z,22.33
2022-10-19T15:25:33.857Z,19.60
2022-10-19T15:28:41.711Z,19.63
2022-10-19T15:31:16.268Z,20.85
2022-10-19T15:33:55.959Z,23.00
2022-10-19T15:36:24.284Z,20.08
2022-10-19T15:39:11.854Z,20.13
2022-10-19T15:41:49.055Z,20.45
2022-10-19T15:44:39.823Z,18.55
2022-10-19T15:47:15.615Z,18.47
2022-10-19T15:49:42.585Z,18.92
2022-10-19T15:52:20.443Z,18.98
2022-10-19T15:54:48.457Z,18.42
2022-10-19T15:57:34.291Z,18.30
2022-10-19T16:00:08.328Z,19.60
2022-10-19T16:02:35.475Z,18.58
2022-10-19T16:05:02.384Z,17.60
2022-10-19T16:07:31.963Z,18.05
2022-10-19T16:09:59.185Z,16.80
2022-10-19T16:12:26.929Z,16.30
2022-10-19T16:14:54.711Z,18.85
2022-10-19T16:17:21.577Z,17.17
2022-10-19T16:19:48.784Z,17.03
2022-10-19T16:22:16.517Z,16.83
2022-10-19T16:24:43.506Z,17.88
2022-10-19T16:27:14.950Z,16.58
2022-10-19T16:29:43.496Z,16.55
2022-10-19T16:32:10.400Z,17.02
2022-10-19T16:34:37.964Z,15.75
2022-10-19T16:37:06.907Z,15.20
2022-10-19T16:39:35.010Z,16.63
2022-10-19T16:42:01.877Z,16.27
2022-10-19T16:44:28.648Z,15.70
2022-10-19T16:46:59.280Z,17.65
2022-10-19T16:49:28.780Z,14.52
2022-10-19T16:51:57.428Z,14.95
2022-10-19T16:54:26.665Z,14.25
2022-10-19T16:56:55.490Z,14.00
2022-10-19T16:59:22.376Z,13.88
2022-10-19T17:01:49.427Z,15.70
2022-10-19T17:04:17.955Z,13.60
2022-10-19T17:06:45.067Z,13.63
2022-10-19T17:11:58.984Z,15.90
2022-10-19T17:14:25.905Z,15.48
2022-10-19T17:16:52.836Z,15.48
2022-10-19T17:19:19.639Z,15.40
2022-10-19T17:21:47.001Z,15.27
2022-10-19T17:24:21.674Z,14.93
2022-10-19T17:26:51.176Z,13.70
2022-10-19T17:29:18.941Z,15.45
2022-10-19T17:31:46.555Z,16.33
2022-10-19T17:34:13.494Z,16.92
2022-10-19T17:36:46.323Z,14.48
2022-10-19T17:39:25.634Z,16.45
2022-10-19T17:42:01.140Z,17.13
2022-10-19T17:44:29.964Z,15.65
2022-10-19T17:46:56.861Z,18.52
2022-10-19T17:49:23.672Z,16.33
2022-10-19T17:51:52.668Z,16.70
2022-10-19T17:54:19.521Z,18.38
2022-10-19T17:56:46.356Z,16.17
2022-10-19T17:59:13.596Z,17.42
2022-10-19T18:01:40.869Z,17.63
2022-10-19T18:04:07.781Z,16.63
2022-10-19T18:06:36.613Z,16.90
2022-10-19T18:09:06.294Z,15.27
2022-10-19T18:11:37.179Z,16.90
2022-10-19T18:14:04.581Z,16.65
2022-10-19T18:16:37.658Z,16.23
2022-10-19T18:19:05.985Z,19.00
2022-10-19T18:21:40.969Z,19.57
2022-10-19T18:24:15.692Z,19.80
2022-10-19T18:26:43.168Z,20.92
2022-10-19T18:29:20.936Z,18.67
2022-10-19T18:31:54.944Z,18.63
2022-10-19T18:34:24.610Z,17.98
2022-10-19T18:36:52.271Z,19.27
2022-10-19T18:39:19.287Z,17.90
2022-10-19T18:41:48.203Z,16.98
2022-10-19T18:44:15.017Z,16.85
2022-10-19T18:46:41.808Z,14.85
2022-10-19T18:49:10.446Z,18.38
2022-10-19T18:51:37.317Z,15.80
2022-10-19T18:54:04.479Z,15.40
2022-10-19T18:56:33.309Z,14.80
2022-10-19T18:59:00.308Z,14.82
2022-10-19T19:01:28.618Z,15.75
2022-10-19T19:03:57.739Z,14.43
2022-10-19T19:06:30.030Z,14.75
2022-10-19T19:08:58.132Z,16.02
2022-10-19T19:11:35.852Z,15.95
2022-10-19T19:14:15.601Z,16.50
2022-10-19T19:16:45.019Z,17.30
2022-10-19T19:19:13.677Z,18.88
2022-10-19T19:21:43.677Z,18.67
2022-10-19T19:24:13.853Z,22.20
2022-10-19T19:26:43.564Z,17.50
2022-10-19T19:29:10.534Z,16.30
2022-10-19T19:31:37.427Z,17.00
2022-10-19T19:34:06.257Z,17.60
2022-10-19T19:36:33.169Z,16.38
2022-10-19T19:39:00.090Z,16.42
2022-10-19T19:41:28.779Z,16.70
2022-10-19T19:43:57.521Z,16.27
2022-10-19T19:46:24.519Z,16.25
2022-10-19T19:48:51.297Z,16.35
2022-10-19T19:51:20.409Z,16.88
2022-10-19T19:53:48.401Z,16.90
2022-10-19T19:56:16.462Z,17.20
2022-10-19T19:58:45.112Z,17.60
2022-10-19T20:01:19.955Z,16.90
2022-10-19T20:03:47.653Z,18.17
2022-10-19T20:06:17.252Z,16.90
2022-10-19T20:08:45.588Z,16.80
2022-10-19T20:11:14.208Z,16.50
2022-10-19T20:13:40.989Z,16.15
2022-10-19T20:16:13.083Z,16.85
2022-10-19T20:18:41.212Z,15.85
2022-10-19T20:21:08.011Z,15.50
2022-10-19T20:23:34.821Z,16.58
2022-10-19T20:26:01.893Z,15.30
2022-10-19T20:28:31.466Z,15.85
2022-10-19T20:31:06.948Z,15.50
2022-10-19T20:33:35.733Z,15.52
2022-10-19T20:36:08.021Z,18.23
2022-10-19T20:38:36.392Z,15.88
2022-10-19T20:41:07.804Z,16.83
2022-10-19T20:43:36.866Z,15.77
2022-10-19T20:46:04.644Z,17.77
2022-10-19T20:48:32.088Z,15.00
2022-10-19T20:51:15.061Z,15.75
2022-10-19T20:53:43.568Z,16.67
2022-10-19T20:56:11.185Z,16.45
2022-10-19T20:58:43.376Z,16.10
2022-10-19T21:01:15.514Z,17.67
2022-10-19T21:03:47.213Z,17.15
2022-10-19T21:06:14.564Z,16.73
2022-10-19T21:08:41.691Z,16.13
2022-10-19T21:11:19.301Z,15.23
2022-10-19T21:13:46.929Z,15.30
2022-10-19T21:16:18.549Z,17.88
2022-10-19T21:18:46.775Z,16.17
2022-10-19T21:21:22.116Z,16.48
2022-10-19T21:23:53.553Z,17.25
2022-10-19T21:26:20.737Z,17.98
2022-10-19T21:28:49.842Z,17.97
2022-10-19T21:31:17.674Z,18.33
2022-10-19T21:33:45.117Z,16.20
2022-10-19T21:36:13.658Z,15.93
2022-10-19T21:38:41.688Z,22.40
2022-10-19T21:41:20.799Z,16.50
2022-10-19T21:43:50.649Z,18.15
2022-10-19T21:46:20.537Z,17.37
2022-10-19T21:48:47.802Z,15.87
2022-10-19T21:51:37.395Z,17.58
2022-10-19T21:54:07.436Z,16.02
2022-10-19T21:56:34.572Z,16.00
2022-10-19T21:59:01.456Z,15.43
2022-10-19T22:01:29.711Z,17.25
2022-10-19T22:03:57.526Z,16.17
2022-10-19T22:06:25.428Z,17.10
2022-10-19T22:08:52.727Z,15.93
2022-10-19T22:11:20.217Z,17.33
2022-10-19T22:13:47.148Z,16.02
2022-10-19T22:16:19.664Z,17.83
2022-10-19T22:18:47.859Z,16.40
2022-10-19T22:21:18.390Z,16.45
2022-10-19T22:23:45.176Z,16.80
2022-10-19T22:26:17.719Z,15.48
2022-10-19T22:28:44.971Z,15.20
2022-10-19T22:31:12.364Z,18.23
2022-10-19T22:33:39.400Z,15.57
2022-10-19T22:36:08.696Z,15.70
2022-10-19T22:38:35.957Z,16.30
2022-10-19T22:41:02.915Z,16.50
2022-10-19T22:43:29.660Z,16.10
2022-10-19T22:45:56.432Z,16.77
2022-10-19T22:48:23.181Z,16.60
2022-10-19T22:50:54.250Z,18.67
2022-10-19T22:53:22.376Z,17.55
2022-10-19T22:55:49.555Z,17.07
2022-10-19T22:58:17.322Z,18.20
2022-10-19T23:00:44.117Z,18.33
2022-10-19T23:03:10.928Z,18.60
2022-10-19T23:05:37.742Z,18.40
2022-10-19T23:08:04.757Z,17.25
2022-10-19T23:10:32.640Z,18.10
2022-10-19T23:12:59.605Z,17.08
2022-10-19T23:15:26.600Z,17.60
2022-10-19T23:17:53.482Z,16.98
2022-10-19T23:20:20.264Z,18.05
2022-10-19T23:22:47.057Z,17.65
2022-10-19T23:25:13.780Z,18.40
2022-10-19T23:27:40.471Z,17.27
2022-10-19T23:30:07.727Z,15.98
2022-10-19T23:32:34.460Z,17.40
2022-10-19T23:35:02.001Z,17.85
2022-10-19T23:37:28.705Z,17.25
2022-10-19T23:39:55.624Z,16.20
2022-10-19T23:42:22.325Z,15.65
2022-10-19T23:44:49.236Z,17.77
2022-10-19T23:47:16.176Z,17.98
2022-10-19T23:49:42.981Z,17.35
2022-10-19T23:52:09.789Z,18.70
2022-10-19T23:54:36.517Z,16.58
2022-10-19T23:57:03.353Z,15.70
2022-10-19T23:59:30.313Z,15.82
